sensor_id;sensor_type;location;lat;lon;timestamp;P1;durP1;ratioP1;P2;durP2;ratioP2
14872;SDS011;7528;48.576;19.122;2023-03-01T00:01:16;31.00;;;21.57;;
14872;SDS011;7528;48.576;19.122;2023-03-01T00:06:20;33.77;;;23.73;;
14872;SDS011;7528;48.576;19.122;2023-03-01T00:11:23;30.17;;;22.40;;
14872;SDS011;7528;48.576;19.122;2023-03-01T00:16:30;31.77;;;23.57;;
14872;SDS011;7528;48.576;19.122;2023-03-01T00:21:34;32.23;;;23.10;;
14872;SDS011;7528;48.576;19.122;2023-03-01T00:26:36;38.90;;;26.07;;
14872;SDS011;7528;48.576;19.122;2023-03-01T00:31:40;33.80;;;24.40;;
14872;SDS011;7528;48.576;19.122;2023-03-01T00:36:43;27.73;;;21.13;;
14872;SDS011;7528;48.576;19.122;2023-03-01T00:41:46;26.27;;;18.80;;
14872;SDS011;7528;48.576;19.122;2023-03-01T00:46:50;28.13;;;19.70;;
14872;SDS011;7528;48.576;19.122;2023-03-01T00:51:52;27.83;;;20.47;;
14872;SDS011;7528;48.576;19.122;2023-03-01T00:56:57;28.43;;;21.27;;
14872;SDS011;7528;48.576;19.122;2023-03-01T01:02:01;27.80;;;20.87;;
14872;SDS011;7528;48.576;19.122;2023-03-01T01:07:04;29.30;;;21.20;;
14872;SDS011;7528;48.576;19.122;2023-03-01T01:12:07;23.13;;;17.83;;
14872;SDS011;7528;48.576;19.122;2023-03-01T01:17:11;21.87;;;16.33;;
14872;SDS011;7528;48.576;19.122;2023-03-01T01:22:14;18.57;;;14.87;;
14872;SDS011;7528;48.576;19.122;2023-03-01T01:27:17;21.90;;;15.27;;
14872;SDS011;7528;48.576;19.122;2023-03-01T01:32:21;20.70;;;15.17;;
14872;SDS011;7528;48.576;19.122;2023-03-01T01:37:24;19.83;;;15.10;;
14872;SDS011;7528;48.576;19.122;2023-03-01T01:42:33;18.53;;;14.57;;
14872;SDS011;7528;48.576;19.122;2023-03-01T01:47:38;27.23;;;19.90;;
14872;SDS011;7528;48.576;19.122;2023-03-01T01:52:40;30.03;;;21.17;;
14872;SDS011;7528;48.576;19.122;2023-03-01T01:57:43;28.73;;;20.80;;
14872;SDS011;7528;48.576;19.122;2023-03-01T02:02:50;28.27;;;20.13;;
14872;SDS011;7528;48.576;19.122;2023-03-01T02:07:57;27.57;;;19.63;;
14872;SDS011;7528;48.576;19.122;2023-03-01T02:13:00;30.70;;;19.30;;
14872;SDS011;7528;48.576;19.122;2023-03-01T02:18:06;27.13;;;18.63;;
14872;SDS011;7528;48.576;19.122;2023-03-01T02:23:11;24.60;;;18.20;;
14872;SDS011;7528;48.576;19.122;2023-03-01T02:33:37;20.60;;;16.10;;
14872;SDS011;7528;48.576;19.122;2023-03-01T02:38:41;21.67;;;15.27;;
14872;SDS011;7528;48.576;19.122;2023-03-01T02:43:45;21.23;;;15.77;;
14872;SDS011;7528;48.576;19.122;2023-03-01T02:48:48;21.50;;;15.93;;
14872;SDS011;7528;48.576;19.122;2023-03-01T02:53:55;18.70;;;14.53;;
14872;SDS011;7528;48.576;19.122;2023-03-01T02:59:06;21.57;;;15.60;;
14872;SDS011;7528;48.576;19.122;2023-03-01T03:04:11;20.83;;;15.77;;
14872;SDS011;7528;48.576;19.122;2023-03-01T03:09:18;19.33;;;14.70;;
14872;SDS011;7528;48.576;19.122;2023-03-01T03:14:22;20.90;;;15.67;;
14872;SDS011;7528;48.576;19.122;2023-03-01T03:19:25;21.63;;;16.27;;
14872;SDS011;7528;48.576;19.122;2023-03-01T03:24:28;19.80;;;15.20;;
14872;SDS011;7528;48.576;19.122;2023-03-01T03:29:39;22.90;;;16.20;;
14872;SDS011;7528;48.576;19.122;2023-03-01T03:34:42;21.77;;;17.07;;
14872;SDS011;7528;48.576;19.122;2023-03-01T03:39:44;23.43;;;17.63;;
14872;SDS011;7528;48.576;19.122;2023-03-01T03:44:48;21.73;;;16.73;;
14872;SDS011;7528;48.576;19.122;2023-03-01T03:49:50;21.77;;;16.17;;
14872;SDS011;7528;48.576;19.122;2023-03-01T03:54:53;22.93;;;17.10;;
14872;SDS011;7528;48.576;19.122;2023-03-01T03:59:57;21.90;;;16.63;;
14872;SDS011;7528;48.576;19.122;2023-03-01T04:04:59;21.47;;;16.37;;
14872;SDS011;7528;48.576;19.122;2023-03-01T04:10:02;18.13;;;15.20;;
14872;SDS011;7528;48.576;19.122;2023-03-01T04:15:07;22.70;;;16.50;;
14872;SDS011;7528;48.576;19.122;2023-03-01T04:20:14;21.50;;;16.27;;
14872;SDS011;7528;48.576;19.122;2023-03-01T04:25:25;25.87;;;16.87;;
14872;SDS011;7528;48.576;19.122;2023-03-01T04:30:29;21.60;;;15.47;;
14872;SDS011;7528;48.576;19.122;2023-03-01T04:35:36;20.63;;;15.27;;
14872;SDS011;7528;48.576;19.122;2023-03-01T04:40:39;22.60;;;16.30;;
14872;SDS011;7528;48.576;19.122;2023-03-01T04:45:44;22.60;;;16.93;;
14872;SDS011;7528;48.576;19.122;2023-03-01T04:50:47;22.43;;;16.60;;
14872;SDS011;7528;48.576;19.122;2023-03-01T04:55:49;20.90;;;15.30;;
14872;SDS011;7528;48.576;19.122;2023-03-01T05:00:53;18.67;;;15.13;;
14872;SDS011;7528;48.576;19.122;2023-03-01T05:05:58;20.27;;;15.17;;
14872;SDS011;7528;48.576;19.122;2023-03-01T05:11:01;20.37;;;15.30;;
14872;SDS011;7528;48.576;19.122;2023-03-01T05:16:06;20.83;;;14.43;;
14872;SDS011;7528;48.576;19.122;2023-03-01T05:21:11;16.90;;;13.10;;
14872;SDS011;7528;48.576;19.122;2023-03-01T05:26:16;18.50;;;14.07;;
14872;SDS011;7528;48.576;19.122;2023-03-01T05:31:23;17.40;;;13.40;;
14872;SDS011;7528;48.576;19.122;2023-03-01T05:36:26;26.27;;;18.83;;
14872;SDS011;7528;48.576;19.122;2023-03-01T05:41:28;27.80;;;21.07;;
14872;SDS011;7528;48.576;19.122;2023-03-01T05:46:33;28.33;;;21.47;;
14872;SDS011;7528;48.576;19.122;2023-03-01T05:51:35;25.83;;;19.50;;
14872;SDS011;7528;48.576;19.122;2023-03-01T05:56:38;23.67;;;18.83;;
14872;SDS011;7528;48.576;19.122;2023-03-01T06:01:42;23.80;;;16.50;;
14872;SDS011;7528;48.576;19.122;2023-03-01T06:06:45;24.23;;;17.80;;
14872;SDS011;7528;48.576;19.122;2023-03-01T06:11:47;28.73;;;19.27;;
14872;SDS011;7528;48.576;19.122;2023-03-01T06:16:51;23.17;;;17.43;;
14872;SDS011;7528;48.576;19.122;2023-03-01T06:21:54;22.40;;;16.20;;
14872;SDS011;7528;48.576;19.122;2023-03-01T06:26:56;24.07;;;18.30;;
14872;SDS011;7528;48.576;19.122;2023-03-01T06:32:00;26.63;;;20.17;;
14872;SDS011;7528;48.576;19.122;2023-03-01T06:37:04;26.67;;;19.47;;
14872;SDS011;7528;48.576;19.122;2023-03-01T06:42:07;26.33;;;20.20;;
14872;SDS011;7528;48.576;19.122;2023-03-01T06:47:11;24.57;;;19.47;;
14872;SDS011;7528;48.576;19.122;2023-03-01T06:52:14;24.50;;;18.07;;
14872;SDS011;7528;48.576;19.122;2023-03-01T06:57:17;26.00;;;18.60;;
14872;SDS011;7528;48.576;19.122;2023-03-01T07:02:20;25.20;;;18.50;;
14872;SDS011;7528;48.576;19.122;2023-03-01T07:07:23;26.90;;;19.77;;
14872;SDS011;7528;48.576;19.122;2023-03-01T07:12:26;27.93;;;20.00;;
14872;SDS011;7528;48.576;19.122;2023-03-01T07:17:30;25.60;;;18.83;;
14872;SDS011;7528;48.576;19.122;2023-03-01T07:22:32;25.97;;;19.13;;
14872;SDS011;7528;48.576;19.122;2023-03-01T07:27:34;25.20;;;18.50;;
14872;SDS011;7528;48.576;19.122;2023-03-01T07:32:39;21.63;;;17.70;;
14872;SDS011;7528;48.576;19.122;2023-03-01T07:37:42;22.63;;;18.13;;
14872;SDS011;7528;48.576;19.122;2023-03-01T07:42:45;24.23;;;17.93;;
14872;SDS011;7528;48.576;19.122;2023-03-01T07:47:49;22.60;;;17.33;;
14872;SDS011;7528;48.576;19.122;2023-03-01T07:52:52;23.97;;;17.47;;
14872;SDS011;7528;48.576;19.122;2023-03-01T07:57:55;21.87;;;16.90;;
14872;SDS011;7528;48.576;19.122;2023-03-01T08:03:00;22.20;;;17.17;;
14872;SDS011;7528;48.576;19.122;2023-03-01T08:08:04;22.20;;;17.57;;
14872;SDS011;7528;48.576;19.122;2023-03-01T08:13:06;20.83;;;16.90;;
14872;SDS011;7528;48.576;19.122;2023-03-01T08:18:10;20.73;;;16.17;;
14872;SDS011;7528;48.576;19.122;2023-03-01T08:23:12;22.80;;;15.87;;
14872;SDS011;7528;48.576;19.122;2023-03-01T08:28:15;21.77;;;16.17;;
14872;SDS011;7528;48.576;19.122;2023-03-01T08:33:19;17.47;;;15.53;;
14872;SDS011;7528;48.576;19.122;2023-03-01T08:38:21;20.83;;;15.67;;
14872;SDS011;7528;48.576;19.122;2023-03-01T08:43:24;18.97;;;15.77;;
14872;SDS011;7528;48.576;19.122;2023-03-01T08:48:28;19.67;;;15.80;;
14872;SDS011;7528;48.576;19.122;2023-03-01T08:53:31;19.57;;;15.33;;
14872;SDS011;7528;48.576;19.122;2023-03-01T08:58:34;19.90;;;15.43;;
14872;SDS011;7528;48.576;19.122;2023-03-01T09:03:38;18.77;;;15.48;;
14872;SDS011;7528;48.576;19.122;2023-03-01T09:08:41;19.75;;;14.30;;
14872;SDS011;7528;48.576;19.122;2023-03-01T09:13:46;14.40;;;12.90;;
14872;SDS011;7528;48.576;19.122;2023-03-01T09:18:51;12.50;;;11.20;;
14872;SDS011;7528;48.576;19.122;2023-03-01T09:23:55;13.40;;;12.00;;
14872;SDS011;7528;48.576;19.122;2023-03-01T09:28:59;12.38;;;10.85;;
14872;SDS011;7528;48.576;19.122;2023-03-01T09:34:03;13.00;;;11.43;;
14872;SDS011;7528;48.576;19.122;2023-03-01T09:39:06;14.48;;;11.60;;
14872;SDS011;7528;48.576;19.122;2023-03-01T09:44:10;10.52;;;8.48;;
14872;SDS011;7528;48.576;19.122;2023-03-01T09:49:23;8.65;;;7.53;;
14872;SDS011;7528;48.576;19.122;2023-03-01T09:54:27;8.82;;;8.02;;
14872;SDS011;7528;48.576;19.122;2023-03-01T09:59:30;11.77;;;10.63;;
14872;SDS011;7528;48.576;19.122;2023-03-01T10:04:44;9.00;;;8.10;;
14872;SDS011;7528;48.576;19.122;2023-03-01T10:09:48;8.80;;;8.00;;
14872;SDS011;7528;48.576;19.122;2023-03-01T10:14:53;7.88;;;7.18;;
14872;SDS011;7528;48.576;19.122;2023-03-01T10:20:12;7.10;;;6.50;;
14872;SDS011;7528;48.576;19.122;2023-03-01T10:25:24;7.65;;;6.82;;
14872;SDS011;7528;48.576;19.122;2023-03-01T10:30:41;7.68;;;7.00;;
14872;SDS011;7528;48.576;19.122;2023-03-01T10:35:45;6.80;;;6.20;;
14872;SDS011;7528;48.576;19.122;2023-03-01T10:40:52;6.97;;;6.38;;
14872;SDS011;7528;48.576;19.122;2023-03-01T10:45:57;5.90;;;5.40;;
14872;SDS011;7528;48.576;19.122;2023-03-01T10:51:07;6.13;;;5.53;;
14872;SDS011;7528;48.576;19.122;2023-03-01T10:56:15;6.82;;;6.22;;
14872;SDS011;7528;48.576;19.122;2023-03-01T11:01:24;5.85;;;5.32;;
14872;SDS011;7528;48.576;19.122;2023-03-01T11:06:29;6.13;;;5.63;;
14872;SDS011;7528;48.576;19.122;2023-03-01T11:11:32;5.82;;;5.22;;
14872;SDS011;7528;48.576;19.122;2023-03-01T11:16:36;5.55;;;5.03;;
14872;SDS011;7528;48.576;19.122;2023-03-01T11:21:42;5.88;;;4.75;;
14872;SDS011;7528;48.576;19.122;2023-03-01T11:26:53;4.43;;;3.97;;
14872;SDS011;7528;48.576;19.122;2023-03-01T11:31:57;3.15;;;2.25;;
14872;SDS011;7528;48.576;19.122;2023-03-01T11:37:08;3.75;;;3.13;;
14872;SDS011;7528;48.576;19.122;2023-03-01T11:42:28;4.00;;;1.80;;
14872;SDS011;7528;48.576;19.122;2023-03-01T11:47:57;2.67;;;2.08;;
14872;SDS011;7528;48.576;19.122;2023-03-01T11:53:18;2.40;;;2.15;;
14872;SDS011;7528;48.576;19.122;2023-03-01T11:58:40;3.55;;;2.00;;
14872;SDS011;7528;48.576;19.122;2023-03-01T12:09:44;2.85;;;2.00;;
14872;SDS011;7528;48.576;19.122;2023-03-01T12:15:25;3.80;;;2.20;;
14872;SDS011;7528;48.576;19.122;2023-03-01T12:20:40;4.30;;;2.20;;
14872;SDS011;7528;48.576;19.122;2023-03-01T12:25:54;3.70;;;2.10;;
14872;SDS011;7528;48.576;19.122;2023-03-01T12:36:41;2.28;;;1.50;;
14872;SDS011;7528;48.576;19.122;2023-03-01T12:41:57;3.15;;;1.75;;
14872;SDS011;7528;48.576;19.122;2023-03-01T12:47:20;3.47;;;1.90;;
14872;SDS011;7528;48.576;19.122;2023-03-01T12:52:34;2.55;;;1.92;;
14872;SDS011;7528;48.576;19.122;2023-03-01T15:16:06;3.90;;;2.45;;
14872;SDS011;7528;48.576;19.122;2023-03-01T15:21:15;4.00;;;2.28;;
14872;SDS011;7528;48.576;19.122;2023-03-01T15:26:23;3.17;;;2.40;;
14872;SDS011;7528;48.576;19.122;2023-03-01T15:31:29;6.70;;;5.72;;
14872;SDS011;7528;48.576;19.122;2023-03-01T15:36:37;14.07;;;10.85;;
14872;SDS011;7528;48.576;19.122;2023-03-01T15:41:46;24.92;;;22.42;;
14872;SDS011;7528;48.576;19.122;2023-03-01T15:46:51;12.23;;;10.93;;
14872;SDS011;7528;48.576;19.122;2023-03-01T15:51:54;16.38;;;14.60;;
14872;SDS011;7528;48.576;19.122;2023-03-01T15:56:57;11.65;;;10.43;;
14872;SDS011;7528;48.576;19.122;2023-03-01T16:02:01;5.50;;;4.22;;
14872;SDS011;7528;48.576;19.122;2023-03-01T16:07:03;5.38;;;3.30;;
14872;SDS011;7528;48.576;19.122;2023-03-01T16:12:08;11.18;;;6.65;;
14872;SDS011;7528;48.576;19.122;2023-03-01T16:17:15;14.52;;;12.68;;
14872;SDS011;7528;48.576;19.122;2023-03-01T16:22:18;13.18;;;9.52;;
14872;SDS011;7528;48.576;19.122;2023-03-01T16:27:25;13.35;;;8.57;;
14872;SDS011;7528;48.576;19.122;2023-03-01T16:32:28;8.02;;;6.78;;
14872;SDS011;7528;48.576;19.122;2023-03-01T16:37:31;7.65;;;5.90;;
14872;SDS011;7528;48.576;19.122;2023-03-01T16:42:35;26.35;;;22.80;;
14872;SDS011;7528;48.576;19.122;2023-03-01T16:47:42;10.88;;;9.00;;
14872;SDS011;7528;48.576;19.122;2023-03-01T16:52:45;12.38;;;8.90;;
14872;SDS011;7528;48.576;19.122;2023-03-01T16:57:47;19.05;;;13.68;;
14872;SDS011;7528;48.576;19.122;2023-03-01T17:02:53;24.17;;;15.23;;
14872;SDS011;7528;48.576;19.122;2023-03-01T17:07:55;37.28;;;23.42;;
14872;SDS011;7528;48.576;19.122;2023-03-01T17:13:00;24.80;;;15.07;;
14872;SDS011;7528;48.576;19.122;2023-03-01T17:18:04;29.47;;;18.33;;
14872;SDS011;7528;48.576;19.122;2023-03-01T17:23:06;28.57;;;18.20;;
14872;SDS011;7528;48.576;19.122;2023-03-01T17:28:09;25.53;;;19.30;;
14872;SDS011;7528;48.576;19.122;2023-03-01T17:33:14;20.23;;;15.27;;
14872;SDS011;7528;48.576;19.122;2023-03-01T17:38:17;18.10;;;12.00;;
14872;SDS011;7528;48.576;19.122;2023-03-01T17:43:20;11.20;;;7.30;;
14872;SDS011;7528;48.576;19.122;2023-03-01T17:48:25;15.33;;;11.67;;
14872;SDS011;7528;48.576;19.122;2023-03-01T17:53:28;16.17;;;12.93;;
14872;SDS011;7528;48.576;19.122;2023-03-01T17:58:30;17.10;;;12.30;;
14872;SDS011;7528;48.576;19.122;2023-03-01T18:03:34;18.00;;;13.87;;
14872;SDS011;7528;48.576;19.122;2023-03-01T18:08:37;19.13;;;15.13;;
14872;SDS011;7528;48.576;19.122;2023-03-01T18:13:39;18.50;;;13.20;;
14872;SDS011;7528;48.576;19.122;2023-03-01T18:18:43;15.70;;;12.53;;
14872;SDS011;7528;48.576;19.122;2023-03-01T18:23:46;16.63;;;13.63;;
14872;SDS011;7528;48.576;19.122;2023-03-01T18:28:48;15.73;;;9.80;;
14872;SDS011;7528;48.576;19.122;2023-03-01T18:33:53;12.73;;;8.73;;
14872;SDS011;7528;48.576;19.122;2023-03-01T18:38:56;25.67;;;20.17;;
14872;SDS011;7528;48.576;19.122;2023-03-01T18:43:58;18.37;;;12.77;;
14872;SDS011;7528;48.576;19.122;2023-03-01T18:49:04;34.00;;;23.57;;
14872;SDS011;7528;48.576;19.122;2023-03-01T18:54:09;98.03;;;60.90;;
14872;SDS011;7528;48.576;19.122;2023-03-01T18:59:12;41.20;;;27.90;;
14872;SDS011;7528;48.576;19.122;2023-03-01T19:04:16;25.17;;;15.63;;
14872;SDS011;7528;48.576;19.122;2023-03-01T19:09:18;15.17;;;11.00;;
14872;SDS011;7528;48.576;19.122;2023-03-01T19:14:20;22.47;;;15.63;;
14872;SDS011;7528;48.576;19.122;2023-03-01T19:19:25;17.80;;;13.33;;
14872;SDS011;7528;48.576;19.122;2023-03-01T19:24:27;268.40;;;103.63;;
14872;SDS011;7528;48.576;19.122;2023-03-01T19:29:30;163.33;;;67.27;;
14872;SDS011;7528;48.576;19.122;2023-03-01T19:34:34;85.03;;;39.47;;
14872;SDS011;7528;48.576;19.122;2023-03-01T19:39:40;61.67;;;30.07;;
14872;SDS011;7528;48.576;19.122;2023-03-01T19:44:43;53.80;;;27.33;;
14872;SDS011;7528;48.576;19.122;2023-03-01T19:49:47;37.10;;;20.60;;
14872;SDS011;7528;48.576;19.122;2023-03-01T19:54:49;16.03;;;10.87;;
14872;SDS011;7528;48.576;19.122;2023-03-01T19:59:51;15.03;;;10.00;;
14872;SDS011;7528;48.576;19.122;2023-03-01T20:04:56;46.17;;;30.63;;
14872;SDS011;7528;48.576;19.122;2023-03-01T20:09:58;23.80;;;16.13;;
14872;SDS011;7528;48.576;19.122;2023-03-01T20:15:01;22.73;;;16.53;;
14872;SDS011;7528;48.576;19.122;2023-03-01T20:20:05;22.53;;;15.27;;
14872;SDS011;7528;48.576;19.122;2023-03-01T20:25:08;27.20;;;18.37;;
14872;SDS011;7528;48.576;19.122;2023-03-01T20:30:12;25.63;;;17.40;;
14872;SDS011;7528;48.576;19.122;2023-03-01T20:35:17;45.03;;;30.70;;
14872;SDS011;7528;48.576;19.122;2023-03-01T20:40:21;45.97;;;31.43;;
14872;SDS011;7528;48.576;19.122;2023-03-01T20:45:27;40.13;;;26.97;;
14872;SDS011;7528;48.576;19.122;2023-03-01T20:50:31;22.73;;;17.03;;
14872;SDS011;7528;48.576;19.122;2023-03-01T20:55:34;26.47;;;18.93;;
14872;SDS011;7528;48.576;19.122;2023-03-01T21:00:36;22.70;;;16.10;;
14872;SDS011;7528;48.576;19.122;2023-03-01T21:05:40;21.13;;;15.87;;
14872;SDS011;7528;48.576;19.122;2023-03-01T21:10:48;20.70;;;14.13;;
14872;SDS011;7528;48.576;19.122;2023-03-01T21:15:51;19.23;;;14.17;;
14872;SDS011;7528;48.576;19.122;2023-03-01T21:20:55;24.00;;;17.07;;
14872;SDS011;7528;48.576;19.122;2023-03-01T21:26:00;29.10;;;19.73;;
14872;SDS011;7528;48.576;19.122;2023-03-01T21:31:04;23.67;;;16.83;;
14872;SDS011;7528;48.576;19.122;2023-03-01T21:36:09;20.23;;;15.23;;
14872;SDS011;7528;48.576;19.122;2023-03-01T21:41:12;24.57;;;18.30;;
14872;SDS011;7528;48.576;19.122;2023-03-01T21:46:17;28.23;;;19.37;;
14872;SDS011;7528;48.576;19.122;2023-03-01T21:51:24;34.23;;;20.73;;
14872;SDS011;7528;48.576;19.122;2023-03-01T21:56:28;34.53;;;22.23;;
14872;SDS011;7528;48.576;19.122;2023-03-01T22:01:33;16.83;;;10.40;;
14872;SDS011;7528;48.576;19.122;2023-03-01T22:06:37;24.37;;;17.33;;
14872;SDS011;7528;48.576;19.122;2023-03-01T22:11:42;35.43;;;22.97;;
14872;SDS011;7528;48.576;19.122;2023-03-01T22:16:46;37.60;;;25.13;;
14872;SDS011;7528;48.576;19.122;2023-03-01T22:21:52;34.27;;;23.27;;
14872;SDS011;7528;48.576;19.122;2023-03-01T22:26:54;29.50;;;18.70;;
14872;SDS011;7528;48.576;19.122;2023-03-01T22:31:57;22.17;;;15.77;;
14872;SDS011;7528;48.576;19.122;2023-03-01T22:37:01;20.33;;;13.93;;
14872;SDS011;7528;48.576;19.122;2023-03-01T22:42:03;15.53;;;11.70;;
14872;SDS011;7528;48.576;19.122;2023-03-01T22:47:06;17.00;;;12.63;;
14872;SDS011;7528;48.576;19.122;2023-03-01T22:52:10;17.67;;;12.10;;
14872;SDS011;7528;48.576;19.122;2023-03-01T22:57:13;14.53;;;10.47;;
14872;SDS011;7528;48.576;19.122;2023-03-01T23:02:15;13.00;;;10.07;;
14872;SDS011;7528;48.576;19.122;2023-03-01T23:07:19;17.43;;;14.30;;
14872;SDS011;7528;48.576;19.122;2023-03-01T23:12:21;18.80;;;13.63;;
14872;SDS011;7528;48.576;19.122;2023-03-01T23:17:24;17.27;;;13.03;;
14872;SDS011;7528;48.576;19.122;2023-03-01T23:22:30;18.87;;;13.10;;
14872;SDS011;7528;48.576;19.122;2023-03-01T23:27:34;18.80;;;11.80;;
14872;SDS011;7528;48.576;19.122;2023-03-01T23:32:39;16.73;;;11.33;;
14872;SDS011;7528;48.576;19.122;2023-03-01T23:37:43;18.77;;;12.20;;
14872;SDS011;7528;48.576;19.122;2023-03-01T23:42:46;21.60;;;15.87;;
14872;SDS011;7528;48.576;19.122;2023-03-01T23:47:48;26.23;;;18.73;;
14872;SDS011;7528;48.576;19.122;2023-03-01T23:52:52;25.60;;;18.03;;
14872;SDS011;7528;48.576;19.122;2023-03-01T23:57:54;18.83;;;13.97;;
